Weather at Crystal Lake Seaplane Base

Public forecast

Using degrees Fahrenheit for public forecast. Weather courtesy of forecast.io.

Closest aviation weather report (METAR) to Crystal Lake Seaplane Base

Closest report is Airlake Airport, 5.9 nm (10.9 km) SSE. Retrieved 2021/09/16 18:55 UTC (15 minutes ago):

KLVN 161855Z AUTO 18012G21KT 10SM CLR 29/15 A2978 RMK AO2

Closest aviation forecast (TAF) to Crystal Lake Seaplane Base

Forecast is more than 12 hours old.

Closest forecast is Airlake Airport, 5.9 nm (10.9 km) SSE. Retrieved 2018/02/05 00:21 UTC (4 years ago):

TAF KLVN 052320Z 0600/0624 27006KT P6SM FEW020 FM060200 31009KT P6SM FEW250 FM061700 22004KT P6SM FEW200 FM062200 22004KT P6SM OVC100 AMD NOT SKED